Ocean City (26N)
Ocean City, NJ
Field Elevation: 8
Lat: 39°15.81N  Long: 74°36.45W
CTAF/Unicom Freq: 122.7000
   
     For Weather-by-Phone, call (609) 398-0705
Weather Advisories
2020-11-24   14:11 Z
Altimeter 30.37" Hg
Wind 320° @ 11 KT
Gusts 17 KT
Visibility 2 SM
Ceiling CLR
Temperature 6° C (43° F)
Dewpoint -2° C (28° F)
Relative Humidity 56%
Density Altitude --
Condensation Altitude 4,200 feet
Wind Chill: 2° C (36° F)
Wind and Runways
Indicated Runway = 24
Headwind = 2 kt
Crosswind = 11 kt
History
 
 
 
More Info
All DigiWx sites map
Weather Radar
NOAA Forecast
 
Airport IQ 5010
(HMIEM) Shock Trauma Ctr
(PN44) Upper Gwynedd Heliport
 
about DigiWx
 
FAA Disclaimer: The data displayed is for advisory purposes only and is not to be used for flight planning or operations. For official data, please call (609) 398-0705 to hear the current automated AWOS voice message.
  METAR 26N 241411Z AUTO 32011G17KT VIS 2 SM CLR 06/M02 A3037